Veterans Hospital, Alabama
Current Conditions -  °F | °C
As of 4:53 PM on Monday 22 Dec 2014 (Local Time) from KTCL Reporting Station
Overcast Overcast  
Wind Chill: 56°   Ceiling: 600
Heat Index: 56°   Visibility: 10mi
Dew Point: 54°   Wind: 7mph
Humidity: 93%   Direction: 130°SE
Pressure: 29.75"   Gusts: NA
Location:  33.1664°N, 87.6118°W
Report Text: KTCL 222253Z 13006KT 10SM OVC006 13/12 A2975 RMK AO2 RAB20E42 SLP072 P0001 T01330122
Loading
Personal Weather Stations






























Interactive Weather Map New forecast layout! Learn more

10-Day Weather Forecast

Advertisements
Track Severe Weather on mobile